sensor_id;sensor_type;location;lat;lon;timestamp;P1;durP1;ratioP1;P2;durP2;ratioP2
1837;SDS011;918;50.796;6.772;2022-07-29T00:02:10;4.33;;;3.37;;
1837;SDS011;918;50.796;6.772;2022-07-29T00:04:36;6.17;;;2.37;;
1837;SDS011;918;50.796;6.772;2022-07-29T00:07:02;5.80;;;2.30;;
1837;SDS011;918;50.796;6.772;2022-07-29T00:09:27;4.93;;;2.40;;
1837;SDS011;918;50.796;6.772;2022-07-29T00:11:53;3.70;;;2.13;;
1837;SDS011;918;50.796;6.772;2022-07-29T00:14:20;3.67;;;2.00;;
1837;SDS011;918;50.796;6.772;2022-07-29T00:16:45;4.70;;;2.80;;
1837;SDS011;918;50.796;6.772;2022-07-29T00:19:10;4.90;;;3.47;;
1837;SDS011;918;50.796;6.772;2022-07-29T00:21:36;4.00;;;2.40;;
1837;SDS011;918;50.796;6.772;2022-07-29T00:24:01;3.87;;;2.57;;
1837;SDS011;918;50.796;6.772;2022-07-29T00:26:26;5.53;;;2.50;;
1837;SDS011;918;50.796;6.772;2022-07-29T00:28:56;5.67;;;2.70;;
1837;SDS011;918;50.796;6.772;2022-07-29T00:31:21;2.30;;;2.10;;
1837;SDS011;918;50.796;6.772;2022-07-29T00:33:47;5.03;;;2.53;;
1837;SDS011;918;50.796;6.772;2022-07-29T00:36:12;2.83;;;2.20;;
1837;SDS011;918;50.796;6.772;2022-07-29T00:38:37;3.03;;;2.17;;
1837;SDS011;918;50.796;6.772;2022-07-29T00:41:02;4.30;;;2.70;;
1837;SDS011;918;50.796;6.772;2022-07-29T00:43:28;2.70;;;2.50;;
1837;SDS011;918;50.796;6.772;2022-07-29T00:45:53;4.13;;;2.30;;
1837;SDS011;918;50.796;6.772;2022-07-29T00:48:18;2.80;;;2.30;;
1837;SDS011;918;50.796;6.772;2022-07-29T00:50:43;2.60;;;2.40;;
1837;SDS011;918;50.796;6.772;2022-07-29T00:53:09;3.30;;;2.40;;
1837;SDS011;918;50.796;6.772;2022-07-29T00:55:36;4.97;;;2.20;;
1837;SDS011;918;50.796;6.772;2022-07-29T00:58:02;5.87;;;2.57;;
1837;SDS011;918;50.796;6.772;2022-07-29T01:00:28;4.90;;;2.70;;
1837;SDS011;918;50.796;6.772;2022-07-29T01:02:54;4.20;;;2.87;;
1837;SDS011;918;50.796;6.772;2022-07-29T01:05:20;4.80;;;2.83;;
1837;SDS011;918;50.796;6.772;2022-07-29T01:07:48;2.90;;;2.50;;
1837;SDS011;918;50.796;6.772;2022-07-29T01:10:16;2.63;;;2.43;;
1837;SDS011;918;50.796;6.772;2022-07-29T01:12:44;3.70;;;2.47;;
1837;SDS011;918;50.796;6.772;2022-07-29T01:15:10;4.00;;;3.60;;
1837;SDS011;918;50.796;6.772;2022-07-29T01:17:38;3.23;;;3.03;;
1837;SDS011;918;50.796;6.772;2022-07-29T01:20:20;3.00;;;2.80;;
1837;SDS011;918;50.796;6.772;2022-07-29T01:25:48;3.33;;;2.57;;
1837;SDS011;918;50.796;6.772;2022-07-29T01:34:11;4.20;;;2.90;;
1837;SDS011;918;50.796;6.772;2022-07-29T01:36:44;5.03;;;2.53;;
1837;SDS011;918;50.796;6.772;2022-07-29T01:39:23;5.70;;;3.47;;
1837;SDS011;918;50.796;6.772;2022-07-29T01:42:54;9.93;;;4.33;;
1837;SDS011;918;50.796;6.772;2022-07-29T01:44:59;3.07;;;2.70;;
1837;SDS011;918;50.796;6.772;2022-07-29T01:47:33;3.83;;;3.37;;
1837;SDS011;918;50.796;6.772;2022-07-29T01:50:03;4.90;;;2.80;;
1837;SDS011;918;50.796;6.772;2022-07-29T01:52:33;5.87;;;3.13;;
1837;SDS011;918;50.796;6.772;2022-07-29T01:55:04;3.67;;;3.00;;
1837;SDS011;918;50.796;6.772;2022-07-29T01:57:33;3.23;;;2.80;;
1837;SDS011;918;50.796;6.772;2022-07-29T02:00:01;6.10;;;3.47;;
1837;SDS011;918;50.796;6.772;2022-07-29T02:02:28;8.97;;;3.47;;
1837;SDS011;918;50.796;6.772;2022-07-29T02:04:53;4.70;;;2.77;;
1837;SDS011;918;50.796;6.772;2022-07-29T02:07:20;4.93;;;2.93;;
1837;SDS011;918;50.796;6.772;2022-07-29T02:09:47;5.43;;;3.00;;
1837;SDS011;918;50.796;6.772;2022-07-29T02:12:13;4.00;;;3.10;;
1837;SDS011;918;50.796;6.772;2022-07-29T02:14:40;3.40;;;2.90;;
1837;SDS011;918;50.796;6.772;2022-07-29T02:17:13;4.23;;;2.90;;
1837;SDS011;918;50.796;6.772;2022-07-29T02:19:38;7.93;;;3.00;;
1837;SDS011;918;50.796;6.772;2022-07-29T02:22:04;3.40;;;3.20;;
1837;SDS011;918;50.796;6.772;2022-07-29T02:24:30;5.87;;;3.13;;
1837;SDS011;918;50.796;6.772;2022-07-29T02:26:56;5.10;;;3.20;;
1837;SDS011;918;50.796;6.772;2022-07-29T02:29:23;3.50;;;3.20;;
1837;SDS011;918;50.796;6.772;2022-07-29T02:31:50;3.27;;;2.97;;
1837;SDS011;918;50.796;6.772;2022-07-29T02:34:17;5.43;;;3.03;;
1837;SDS011;918;50.796;6.772;2022-07-29T02:36:43;9.23;;;3.77;;
1837;SDS011;918;50.796;6.772;2022-07-29T02:39:09;2.90;;;2.70;;
1837;SDS011;918;50.796;6.772;2022-07-29T02:41:49;4.40;;;3.13;;
1837;SDS011;918;50.796;6.772;2022-07-29T02:44:17;3.03;;;2.83;;
1837;SDS011;918;50.796;6.772;2022-07-29T02:47:00;3.03;;;2.60;;
1837;SDS011;918;50.796;6.772;2022-07-29T02:52:12;3.60;;;2.67;;
1837;SDS011;918;50.796;6.772;2022-07-29T02:54:56;3.97;;;2.83;;
1837;SDS011;918;50.796;6.772;2022-07-29T02:57:41;3.43;;;3.10;;
1837;SDS011;918;50.796;6.772;2022-07-29T03:00:07;4.73;;;3.10;;
1837;SDS011;918;50.796;6.772;2022-07-29T03:02:34;7.43;;;2.70;;
1837;SDS011;918;50.796;6.772;2022-07-29T03:05:02;5.00;;;2.80;;
1837;SDS011;918;50.796;6.772;2022-07-29T03:07:28;4.87;;;2.37;;
1837;SDS011;918;50.796;6.772;2022-07-29T03:09:54;4.70;;;2.80;;
1837;SDS011;918;50.796;6.772;2022-07-29T03:12:20;2.93;;;2.40;;
1837;SDS011;918;50.796;6.772;2022-07-29T03:14:46;6.77;;;2.70;;
1837;SDS011;918;50.796;6.772;2022-07-29T03:17:12;5.70;;;2.40;;
1837;SDS011;918;50.796;6.772;2022-07-29T03:19:37;3.73;;;2.40;;
1837;SDS011;918;50.796;6.772;2022-07-29T03:22:03;5.13;;;2.60;;
1837;SDS011;918;50.796;6.772;2022-07-29T03:24:32;5.20;;;2.20;;
1837;SDS011;918;50.796;6.772;2022-07-29T03:26:59;4.47;;;2.57;;
1837;SDS011;918;50.796;6.772;2022-07-29T03:29:25;4.60;;;2.80;;
1837;SDS011;918;50.796;6.772;2022-07-29T03:31:51;4.07;;;3.17;;
1837;SDS011;918;50.796;6.772;2022-07-29T03:34:17;6.90;;;2.57;;
1837;SDS011;918;50.796;6.772;2022-07-29T03:36:42;6.93;;;2.50;;
1837;SDS011;918;50.796;6.772;2022-07-29T03:39:07;4.13;;;2.63;;
1837;SDS011;918;50.796;6.772;2022-07-29T03:41:34;4.83;;;2.80;;
1837;SDS011;918;50.796;6.772;2022-07-29T03:44:01;2.53;;;2.33;;
1837;SDS011;918;50.796;6.772;2022-07-29T03:46:27;3.40;;;3.10;;
1837;SDS011;918;50.796;6.772;2022-07-29T03:48:55;3.63;;;2.80;;
1837;SDS011;918;50.796;6.772;2022-07-29T03:51:24;3.33;;;2.53;;
1837;SDS011;918;50.796;6.772;2022-07-29T03:53:50;4.47;;;3.20;;
1837;SDS011;918;50.796;6.772;2022-07-29T03:56:15;3.43;;;2.77;;
1837;SDS011;918;50.796;6.772;2022-07-29T03:58:41;3.90;;;2.47;;
1837;SDS011;918;50.796;6.772;2022-07-29T04:01:07;4.23;;;2.50;;
1837;SDS011;918;50.796;6.772;2022-07-29T04:03:33;3.70;;;2.40;;
1837;SDS011;918;50.796;6.772;2022-07-29T04:06:00;3.53;;;2.60;;
1837;SDS011;918;50.796;6.772;2022-07-29T04:08:30;6.97;;;2.67;;
1837;SDS011;918;50.796;6.772;2022-07-29T04:10:56;3.83;;;2.73;;
1837;SDS011;918;50.796;6.772;2022-07-29T04:13:22;2.87;;;2.60;;
1837;SDS011;918;50.796;6.772;2022-07-29T04:15:47;2.80;;;2.50;;
1837;SDS011;918;50.796;6.772;2022-07-29T04:18:12;2.57;;;2.20;;
1837;SDS011;918;50.796;6.772;2022-07-29T04:20:37;2.53;;;2.33;;
1837;SDS011;918;50.796;6.772;2022-07-29T04:23:03;3.80;;;2.83;;
1837;SDS011;918;50.796;6.772;2022-07-29T04:25:28;3.67;;;2.37;;
1837;SDS011;918;50.796;6.772;2022-07-29T04:27:53;5.73;;;2.23;;
1837;SDS011;918;50.796;6.772;2022-07-29T04:30:25;3.33;;;2.30;;
1837;SDS011;918;50.796;6.772;2022-07-29T04:32:50;3.80;;;2.73;;
1837;SDS011;918;50.796;6.772;2022-07-29T04:35:15;2.80;;;2.33;;
1837;SDS011;918;50.796;6.772;2022-07-29T04:37:40;3.20;;;2.40;;
1837;SDS011;918;50.796;6.772;2022-07-29T04:40:06;6.73;;;2.37;;
1837;SDS011;918;50.796;6.772;2022-07-29T04:42:31;4.90;;;2.77;;
1837;SDS011;918;50.796;6.772;2022-07-29T04:44:56;5.60;;;3.43;;
1837;SDS011;918;50.796;6.772;2022-07-29T04:47:22;3.37;;;2.30;;
1837;SDS011;918;50.796;6.772;2022-07-29T04:49:47;4.53;;;3.23;;
1837;SDS011;918;50.796;6.772;2022-07-29T04:52:12;3.13;;;2.83;;
1837;SDS011;918;50.796;6.772;2022-07-29T04:54:37;3.97;;;3.00;;
1837;SDS011;918;50.796;6.772;2022-07-29T04:57:03;5.33;;;3.00;;
1837;SDS011;918;50.796;6.772;2022-07-29T04:59:28;3.63;;;2.53;;
1837;SDS011;918;50.796;6.772;2022-07-29T05:01:53;7.53;;;3.90;;
1837;SDS011;918;50.796;6.772;2022-07-29T05:04:18;3.40;;;2.87;;
1837;SDS011;918;50.796;6.772;2022-07-29T05:06:44;5.63;;;2.73;;
1837;SDS011;918;50.796;6.772;2022-07-29T05:09:09;4.40;;;2.80;;
1837;SDS011;918;50.796;6.772;2022-07-29T05:11:34;4.83;;;2.53;;
1837;SDS011;918;50.796;6.772;2022-07-29T05:13:59;3.87;;;2.27;;
1837;SDS011;918;50.796;6.772;2022-07-29T05:16:25;2.87;;;2.30;;
1837;SDS011;918;50.796;6.772;2022-07-29T05:18:50;4.60;;;2.60;;
1837;SDS011;918;50.796;6.772;2022-07-29T05:21:15;3.90;;;2.80;;
1837;SDS011;918;50.796;6.772;2022-07-29T05:23:40;4.20;;;3.20;;
1837;SDS011;918;50.796;6.772;2022-07-29T05:26:06;4.93;;;2.77;;
1837;SDS011;918;50.796;6.772;2022-07-29T05:28:34;7.03;;;2.97;;
1837;SDS011;918;50.796;6.772;2022-07-29T05:31:00;7.07;;;2.50;;
1837;SDS011;918;50.796;6.772;2022-07-29T05:33:25;2.60;;;2.40;;
1837;SDS011;918;50.796;6.772;2022-07-29T05:35:50;2.53;;;2.33;;
1837;SDS011;918;50.796;6.772;2022-07-29T05:38:16;3.83;;;2.23;;
1837;SDS011;918;50.796;6.772;2022-07-29T05:40:41;4.33;;;2.40;;
1837;SDS011;918;50.796;6.772;2022-07-29T05:43:06;4.20;;;3.07;;
1837;SDS011;918;50.796;6.772;2022-07-29T05:45:31;4.00;;;3.60;;
1837;SDS011;918;50.796;6.772;2022-07-29T05:47:57;3.87;;;3.23;;
1837;SDS011;918;50.796;6.772;2022-07-29T05:50:22;6.10;;;3.23;;
1837;SDS011;918;50.796;6.772;2022-07-29T05:52:47;4.33;;;3.33;;
1837;SDS011;918;50.796;6.772;2022-07-29T05:55:13;4.57;;;3.67;;
1837;SDS011;918;50.796;6.772;2022-07-29T05:57:38;4.33;;;2.90;;
1837;SDS011;918;50.796;6.772;2022-07-29T06:00:03;4.20;;;2.67;;
1837;SDS011;918;50.796;6.772;2022-07-29T06:02:29;3.03;;;2.80;;
1837;SDS011;918;50.796;6.772;2022-07-29T06:04:54;4.20;;;2.83;;
1837;SDS011;918;50.796;6.772;2022-07-29T06:07:20;6.57;;;3.07;;
1837;SDS011;918;50.796;6.772;2022-07-29T06:09:45;3.13;;;2.80;;
1837;SDS011;918;50.796;6.772;2022-07-29T06:12:10;3.70;;;2.97;;
1837;SDS011;918;50.796;6.772;2022-07-29T06:14:36;7.87;;;3.93;;
1837;SDS011;918;50.796;6.772;2022-07-29T06:17:02;4.50;;;3.30;;
1837;SDS011;918;50.796;6.772;2022-07-29T06:19:28;10.30;;;3.80;;
1837;SDS011;918;50.796;6.772;2022-07-29T06:21:53;5.50;;;3.67;;
1837;SDS011;918;50.796;6.772;2022-07-29T06:24:19;3.30;;;3.00;;
1837;SDS011;918;50.796;6.772;2022-07-29T06:26:44;5.10;;;3.33;;
1837;SDS011;918;50.796;6.772;2022-07-29T06:29:10;9.87;;;4.03;;
1837;SDS011;918;50.796;6.772;2022-07-29T06:31:38;5.50;;;3.53;;
1837;SDS011;918;50.796;6.772;2022-07-29T06:34:04;4.40;;;3.47;;
1837;SDS011;918;50.796;6.772;2022-07-29T06:36:29;3.87;;;3.57;;
1837;SDS011;918;50.796;6.772;2022-07-29T06:38:54;3.97;;;3.57;;
1837;SDS011;918;50.796;6.772;2022-07-29T06:41:20;8.97;;;4.43;;
1837;SDS011;918;50.796;6.772;2022-07-29T06:43:45;4.33;;;3.60;;
1837;SDS011;918;50.796;6.772;2022-07-29T06:46:12;5.90;;;4.10;;
1837;SDS011;918;50.796;6.772;2022-07-29T06:48:39;5.40;;;3.87;;
1837;SDS011;918;50.796;6.772;2022-07-29T06:51:07;4.10;;;3.70;;
1837;SDS011;918;50.796;6.772;2022-07-29T06:53:33;9.40;;;4.27;;
1837;SDS011;918;50.796;6.772;2022-07-29T06:55:58;6.53;;;4.27;;
1837;SDS011;918;50.796;6.772;2022-07-29T06:58:25;5.50;;;4.30;;
1837;SDS011;918;50.796;6.772;2022-07-29T07:00:51;7.10;;;4.30;;
1837;SDS011;918;50.796;6.772;2022-07-29T07:03:17;6.63;;;4.40;;
1837;SDS011;918;50.796;6.772;2022-07-29T07:05:43;7.60;;;4.77;;
1837;SDS011;918;50.796;6.772;2022-07-29T07:08:09;4.70;;;4.30;;
1837;SDS011;918;50.796;6.772;2022-07-29T07:10:34;4.17;;;3.87;;
1837;SDS011;918;50.796;6.772;2022-07-29T07:13:00;10.30;;;5.40;;
1837;SDS011;918;50.796;6.772;2022-07-29T07:15:26;5.23;;;4.73;;
1837;SDS011;918;50.796;6.772;2022-07-29T07:17:52;5.43;;;4.93;;
1837;SDS011;918;50.796;6.772;2022-07-29T07:20:17;4.93;;;4.53;;
1837;SDS011;918;50.796;6.772;2022-07-29T07:22:43;4.57;;;4.13;;
1837;SDS011;918;50.796;6.772;2022-07-29T07:25:08;7.50;;;4.43;;
1837;SDS011;918;50.796;6.772;2022-07-29T07:27:33;5.00;;;4.47;;
1837;SDS011;918;50.796;6.772;2022-07-29T07:29:59;7.13;;;4.67;;
1837;SDS011;918;50.796;6.772;2022-07-29T07:32:24;5.17;;;4.70;;
1837;SDS011;918;50.796;6.772;2022-07-29T07:34:49;8.33;;;5.20;;
1837;SDS011;918;50.796;6.772;2022-07-29T07:37:15;6.40;;;4.67;;
1837;SDS011;918;50.796;6.772;2022-07-29T07:39:40;7.17;;;4.83;;
1837;SDS011;918;50.796;6.772;2022-07-29T07:42:06;5.70;;;4.50;;
1837;SDS011;918;50.796;6.772;2022-07-29T07:44:31;4.90;;;4.20;;
1837;SDS011;918;50.796;6.772;2022-07-29T07:46:56;4.77;;;4.07;;
1837;SDS011;918;50.796;6.772;2022-07-29T07:49:22;6.13;;;5.30;;
1837;SDS011;918;50.796;6.772;2022-07-29T07:51:47;6.70;;;5.50;;
1837;SDS011;918;50.796;6.772;2022-07-29T07:54:12;7.63;;;4.60;;
1837;SDS011;918;50.796;6.772;2022-07-29T07:56:38;6.70;;;5.07;;
1837;SDS011;918;50.796;6.772;2022-07-29T07:59:03;8.53;;;5.07;;
1837;SDS011;918;50.796;6.772;2022-07-29T08:01:28;5.27;;;4.77;;
1837;SDS011;918;50.796;6.772;2022-07-29T08:03:53;6.97;;;6.10;;
1837;SDS011;918;50.796;6.772;2022-07-29T08:06:19;9.70;;;5.80;;
1837;SDS011;918;50.796;6.772;2022-07-29T08:08:44;9.47;;;6.57;;
1837;SDS011;918;50.796;6.772;2022-07-29T08:11:09;6.33;;;5.20;;
1837;SDS011;918;50.796;6.772;2022-07-29T08:13:35;6.83;;;5.83;;
1837;SDS011;918;50.796;6.772;2022-07-29T08:16:01;8.03;;;6.30;;
1837;SDS011;918;50.796;6.772;2022-07-29T08:18:30;9.00;;;6.17;;
1837;SDS011;918;50.796;6.772;2022-07-29T08:20:56;6.73;;;6.00;;
1837;SDS011;918;50.796;6.772;2022-07-29T08:23:21;6.40;;;5.70;;
1837;SDS011;918;50.796;6.772;2022-07-29T08:25:48;9.47;;;6.20;;
1837;SDS011;918;50.796;6.772;2022-07-29T08:28:13;6.03;;;5.43;;
1837;SDS011;918;50.796;6.772;2022-07-29T08:30:39;5.70;;;5.10;;
1837;SDS011;918;50.796;6.772;2022-07-29T08:33:04;5.60;;;5.07;;
1837;SDS011;918;50.796;6.772;2022-07-29T08:35:29;6.47;;;5.80;;
1837;SDS011;918;50.796;6.772;2022-07-29T08:37:55;8.20;;;6.60;;
1837;SDS011;918;50.796;6.772;2022-07-29T08:40:21;8.07;;;6.30;;
1837;SDS011;918;50.796;6.772;2022-07-29T08:42:48;8.47;;;6.00;;
1837;SDS011;918;50.796;6.772;2022-07-29T08:45:14;7.37;;;6.30;;
1837;SDS011;918;50.796;6.772;2022-07-29T08:47:39;8.63;;;6.17;;
1837;SDS011;918;50.796;6.772;2022-07-29T08:50:05;7.30;;;5.60;;
1837;SDS011;918;50.796;6.772;2022-07-29T08:52:32;6.50;;;5.90;;
1837;SDS011;918;50.796;6.772;2022-07-29T08:55:01;5.03;;;4.63;;
1837;SDS011;918;50.796;6.772;2022-07-29T08:57:26;5.90;;;5.30;;
1837;SDS011;918;50.796;6.772;2022-07-29T08:59:52;4.77;;;4.37;;
1837;SDS011;918;50.796;6.772;2022-07-29T09:02:19;6.07;;;5.43;;
1837;SDS011;918;50.796;6.772;2022-07-29T09:04:45;6.43;;;4.90;;
1837;SDS011;918;50.796;6.772;2022-07-29T09:07:13;5.70;;;5.10;;
1837;SDS011;918;50.796;6.772;2022-07-29T09:09:40;7.83;;;6.00;;
1837;SDS011;918;50.796;6.772;2022-07-29T09:12:05;7.23;;;5.33;;
1837;SDS011;918;50.796;6.772;2022-07-29T09:14:33;5.90;;;4.87;;
1837;SDS011;918;50.796;6.772;2022-07-29T09:16:58;4.93;;;4.53;;
1837;SDS011;918;50.796;6.772;2022-07-29T09:19:27;5.13;;;4.63;;
1837;SDS011;918;50.796;6.772;2022-07-29T09:21:55;5.80;;;5.00;;
1837;SDS011;918;50.796;6.772;2022-07-29T09:24:28;5.57;;;5.07;;
1837;SDS011;918;50.796;6.772;2022-07-29T09:27:05;7.53;;;5.00;;
1837;SDS011;918;50.796;6.772;2022-07-29T09:29:33;8.63;;;4.93;;
1837;SDS011;918;50.796;6.772;2022-07-29T09:31:58;4.00;;;3.70;;
1837;SDS011;918;50.796;6.772;2022-07-29T09:34:27;6.13;;;3.80;;
1837;SDS011;918;50.796;6.772;2022-07-29T09:36:55;8.13;;;4.70;;
1837;SDS011;918;50.796;6.772;2022-07-29T09:39:26;5.77;;;4.30;;
1837;SDS011;918;50.796;6.772;2022-07-29T09:41:54;4.93;;;3.97;;
1837;SDS011;918;50.796;6.772;2022-07-29T09:44:21;6.50;;;5.10;;
1837;SDS011;918;50.796;6.772;2022-07-29T09:47:00;5.73;;;4.93;;
1837;SDS011;918;50.796;6.772;2022-07-29T09:49:31;4.87;;;3.67;;
1837;SDS011;918;50.796;6.772;2022-07-29T09:52:01;5.87;;;5.10;;
1837;SDS011;918;50.796;6.772;2022-07-29T09:54:28;5.30;;;4.80;;
1837;SDS011;918;50.796;6.772;2022-07-29T09:56:59;5.97;;;4.47;;
1837;SDS011;918;50.796;6.772;2022-07-29T09:59:24;5.57;;;3.70;;
1837;SDS011;918;50.796;6.772;2022-07-29T10:01:51;4.10;;;3.80;;
1837;SDS011;918;50.796;6.772;2022-07-29T10:04:17;3.97;;;2.90;;
1837;SDS011;918;50.796;6.772;2022-07-29T10:06:55;5.80;;;3.50;;
1837;SDS011;918;50.796;6.772;2022-07-29T10:09:24;5.27;;;3.50;;
1837;SDS011;918;50.796;6.772;2022-07-29T10:12:02;3.07;;;2.87;;
1837;SDS011;918;50.796;6.772;2022-07-29T10:14:31;3.83;;;2.97;;
1837;SDS011;918;50.796;6.772;2022-07-29T10:16:59;4.50;;;3.50;;
1837;SDS011;918;50.796;6.772;2022-07-29T10:19:25;2.87;;;2.60;;
1837;SDS011;918;50.796;6.772;2022-07-29T10:21:50;3.60;;;3.30;;
1837;SDS011;918;50.796;6.772;2022-07-29T10:24:16;3.63;;;2.83;;
1837;SDS011;918;50.796;6.772;2022-07-29T10:26:42;3.10;;;2.50;;
1837;SDS011;918;50.796;6.772;2022-07-29T10:29:07;4.13;;;2.80;;
1837;SDS011;918;50.796;6.772;2022-07-29T10:31:44;3.20;;;3.00;;
1837;SDS011;918;50.796;6.772;2022-07-29T10:34:23;3.57;;;2.53;;
1837;SDS011;918;50.796;6.772;2022-07-29T10:37:12;2.87;;;2.60;;
1837;SDS011;918;50.796;6.772;2022-07-29T10:40:03;3.60;;;2.77;;
1837;SDS011;918;50.796;6.772;2022-07-29T10:42:54;3.83;;;2.63;;
1837;SDS011;918;50.796;6.772;2022-07-29T10:45:20;4.00;;;2.27;;
1837;SDS011;918;50.796;6.772;2022-07-29T10:47:46;5.03;;;2.70;;
1837;SDS011;918;50.796;6.772;2022-07-29T10:50:11;5.27;;;3.40;;
1837;SDS011;918;50.796;6.772;2022-07-29T10:55:33;3.17;;;2.50;;
1837;SDS011;918;50.796;6.772;2022-07-29T10:58:23;4.30;;;3.17;;
1837;SDS011;918;50.796;6.772;2022-07-29T11:00:50;3.13;;;1.90;;
1837;SDS011;918;50.796;6.772;2022-07-29T11:06:07;3.17;;;2.27;;
1837;SDS011;918;50.796;6.772;2022-07-29T11:08:32;4.27;;;2.87;;
1837;SDS011;918;50.796;6.772;2022-07-29T11:16:15;3.20;;;2.60;;
1837;SDS011;918;50.796;6.772;2022-07-29T11:21:41;3.17;;;2.97;;
1837;SDS011;918;50.796;6.772;2022-07-29T11:24:11;2.80;;;2.57;;
1837;SDS011;918;50.796;6.772;2022-07-29T11:26:40;3.90;;;3.50;;
1837;SDS011;918;50.796;6.772;2022-07-29T11:29:14;3.43;;;2.93;;
1837;SDS011;918;50.796;6.772;2022-07-29T11:31:46;4.50;;;2.20;;
1837;SDS011;918;50.796;6.772;2022-07-29T11:34:16;3.60;;;2.83;;
1837;SDS011;918;50.796;6.772;2022-07-29T11:39:31;4.77;;;3.30;;
1837;SDS011;918;50.796;6.772;2022-07-29T11:45:12;2.77;;;2.27;;
1837;SDS011;918;50.796;6.772;2022-07-29T11:50:06;3.60;;;2.53;;
1837;SDS011;918;50.796;6.772;2022-07-29T11:52:37;4.27;;;3.00;;
1837;SDS011;918;50.796;6.772;2022-07-29T11:55:08;3.00;;;2.80;;
1837;SDS011;918;50.796;6.772;2022-07-29T11:57:35;4.53;;;2.77;;
1837;SDS011;918;50.796;6.772;2022-07-29T12:00:00;2.87;;;2.63;;
1837;SDS011;918;50.796;6.772;2022-07-29T12:02:37;3.17;;;2.57;;
1837;SDS011;918;50.796;6.772;2022-07-29T12:05:04;3.03;;;2.73;;
1837;SDS011;918;50.796;6.772;2022-07-29T12:07:30;3.40;;;2.20;;
1837;SDS011;918;50.796;6.772;2022-07-29T12:09:56;3.67;;;2.70;;
1837;SDS011;918;50.796;6.772;2022-07-29T12:12:22;2.67;;;2.43;;
1837;SDS011;918;50.796;6.772;2022-07-29T12:14:48;3.10;;;2.73;;
1837;SDS011;918;50.796;6.772;2022-07-29T12:17:32;3.60;;;2.77;;
1837;SDS011;918;50.796;6.772;2022-07-29T12:19:59;3.07;;;2.70;;
1837;SDS011;918;50.796;6.772;2022-07-29T12:22:28;3.03;;;2.50;;
1837;SDS011;918;50.796;6.772;2022-07-29T12:25:00;4.10;;;2.90;;
1837;SDS011;918;50.796;6.772;2022-07-29T12:27:27;3.57;;;2.93;;
1837;SDS011;918;50.796;6.772;2022-07-29T12:29:56;3.70;;;2.37;;
1837;SDS011;918;50.796;6.772;2022-07-29T12:32:23;3.10;;;2.90;;
1837;SDS011;918;50.796;6.772;2022-07-29T12:34:49;2.70;;;2.40;;
1837;SDS011;918;50.796;6.772;2022-07-29T12:37:14;3.60;;;2.20;;
1837;SDS011;918;50.796;6.772;2022-07-29T12:39:39;2.83;;;2.63;;
1837;SDS011;918;50.796;6.772;2022-07-29T12:42:10;3.43;;;2.57;;
1837;SDS011;918;50.796;6.772;2022-07-29T12:44:48;4.63;;;2.77;;
1837;SDS011;918;50.796;6.772;2022-07-29T12:47:15;3.63;;;2.70;;
1837;SDS011;918;50.796;6.772;2022-07-29T12:49:40;4.10;;;1.90;;
1837;SDS011;918;50.796;6.772;2022-07-29T12:54:50;2.70;;;2.20;;
1837;SDS011;918;50.796;6.772;2022-07-29T12:57:15;4.33;;;2.60;;
1837;SDS011;918;50.796;6.772;2022-07-29T12:59:40;2.60;;;2.40;;
1837;SDS011;918;50.796;6.772;2022-07-29T13:02:06;3.87;;;2.13;;
1837;SDS011;918;50.796;6.772;2022-07-29T13:04:32;3.00;;;2.57;;
1837;SDS011;918;50.796;6.772;2022-07-29T13:06:59;2.97;;;2.23;;
1837;SDS011;918;50.796;6.772;2022-07-29T13:09:35;2.60;;;2.40;;
1837;SDS011;918;50.796;6.772;2022-07-29T13:12:08;3.07;;;2.43;;
1837;SDS011;918;50.796;6.772;2022-07-29T13:14:36;3.40;;;2.20;;
1837;SDS011;918;50.796;6.772;2022-07-29T13:17:07;2.80;;;1.70;;
1837;SDS011;918;50.796;6.772;2022-07-29T13:19:44;3.03;;;2.67;;
1837;SDS011;918;50.796;6.772;2022-07-29T13:22:13;5.23;;;2.43;;
1837;SDS011;918;50.796;6.772;2022-07-29T13:24:47;2.40;;;2.20;;
1837;SDS011;918;50.796;6.772;2022-07-29T13:27:20;2.40;;;2.20;;
1837;SDS011;918;50.796;6.772;2022-07-29T13:29:47;3.70;;;2.60;;
1837;SDS011;918;50.796;6.772;2022-07-29T13:32:13;2.83;;;2.37;;
1837;SDS011;918;50.796;6.772;2022-07-29T13:34:39;3.07;;;2.47;;
1837;SDS011;918;50.796;6.772;2022-07-29T13:37:04;3.20;;;2.60;;
1837;SDS011;918;50.796;6.772;2022-07-29T13:39:30;3.83;;;2.40;;
1837;SDS011;918;50.796;6.772;2022-07-29T13:41:55;2.60;;;2.40;;
1837;SDS011;918;50.796;6.772;2022-07-29T13:44:20;3.23;;;2.93;;
1837;SDS011;918;50.796;6.772;2022-07-29T13:46:46;2.60;;;2.40;;
1837;SDS011;918;50.796;6.772;2022-07-29T13:49:11;3.47;;;2.43;;
1837;SDS011;918;50.796;6.772;2022-07-29T13:51:36;2.60;;;2.40;;
1837;SDS011;918;50.796;6.772;2022-07-29T13:54:02;2.80;;;2.30;;
1837;SDS011;918;50.796;6.772;2022-07-29T13:56:28;3.97;;;3.57;;
1837;SDS011;918;50.796;6.772;2022-07-29T13:58:53;5.77;;;2.80;;
1837;SDS011;918;50.796;6.772;2022-07-29T14:01:18;3.87;;;2.90;;
1837;SDS011;918;50.796;6.772;2022-07-29T14:03:44;4.60;;;3.97;;
1837;SDS011;918;50.796;6.772;2022-07-29T14:06:09;4.30;;;4.00;;
1837;SDS011;918;50.796;6.772;2022-07-29T14:08:34;3.93;;;3.63;;
1837;SDS011;918;50.796;6.772;2022-07-29T14:11:00;2.80;;;2.57;;
1837;SDS011;918;50.796;6.772;2022-07-29T14:13:25;4.87;;;4.37;;
1837;SDS011;918;50.796;6.772;2022-07-29T14:15:50;5.23;;;4.73;;
1837;SDS011;918;50.796;6.772;2022-07-29T14:18:16;4.10;;;3.70;;
1837;SDS011;918;50.796;6.772;2022-07-29T14:20:41;5.60;;;3.83;;
1837;SDS011;918;50.796;6.772;2022-07-29T14:23:20;5.23;;;4.50;;
1837;SDS011;918;50.796;6.772;2022-07-29T14:25:45;3.87;;;3.40;;
1837;SDS011;918;50.796;6.772;2022-07-29T14:28:11;4.43;;;3.80;;
1837;SDS011;918;50.796;6.772;2022-07-29T14:30:36;4.30;;;3.33;;
1837;SDS011;918;50.796;6.772;2022-07-29T14:33:02;3.17;;;2.93;;
1837;SDS011;918;50.796;6.772;2022-07-29T14:35:28;4.80;;;4.00;;
1837;SDS011;918;50.796;6.772;2022-07-29T14:37:53;3.87;;;3.30;;
1837;SDS011;918;50.796;6.772;2022-07-29T14:40:19;5.17;;;3.23;;
1837;SDS011;918;50.796;6.772;2022-07-29T14:42:44;6.00;;;3.70;;
1837;SDS011;918;50.796;6.772;2022-07-29T14:45:09;4.13;;;3.37;;
1837;SDS011;918;50.796;6.772;2022-07-29T14:47:35;3.33;;;3.00;;
1837;SDS011;918;50.796;6.772;2022-07-29T14:50:01;4.60;;;2.30;;
1837;SDS011;918;50.796;6.772;2022-07-29T14:52:26;4.30;;;2.47;;
1837;SDS011;918;50.796;6.772;2022-07-29T14:54:51;3.50;;;2.80;;
1837;SDS011;918;50.796;6.772;2022-07-29T14:57:17;8.20;;;2.80;;
1837;SDS011;918;50.796;6.772;2022-07-29T14:59:42;2.47;;;2.27;;
1837;SDS011;918;50.796;6.772;2022-07-29T15:02:07;4.10;;;2.53;;
1837;SDS011;918;50.796;6.772;2022-07-29T15:04:33;2.90;;;2.50;;
1837;SDS011;918;50.796;6.772;2022-07-29T15:06:58;2.93;;;2.73;;
1837;SDS011;918;50.796;6.772;2022-07-29T15:09:23;3.90;;;3.03;;
1837;SDS011;918;50.796;6.772;2022-07-29T15:11:49;2.80;;;2.33;;
1837;SDS011;918;50.796;6.772;2022-07-29T15:14:14;3.77;;;3.20;;
1837;SDS011;918;50.796;6.772;2022-07-29T15:16:40;4.53;;;3.47;;
1837;SDS011;918;50.796;6.772;2022-07-29T15:19:07;3.63;;;2.70;;
1837;SDS011;918;50.796;6.772;2022-07-29T15:21:32;3.23;;;2.30;;
1837;SDS011;918;50.796;6.772;2022-07-29T15:23:57;3.00;;;2.80;;
1837;SDS011;918;50.796;6.772;2022-07-29T15:26:23;4.40;;;2.67;;
1837;SDS011;918;50.796;6.772;2022-07-29T15:28:48;5.53;;;2.40;;
1837;SDS011;918;50.796;6.772;2022-07-29T15:31:13;4.27;;;2.40;;
1837;SDS011;918;50.796;6.772;2022-07-29T15:33:39;3.50;;;2.47;;
1837;SDS011;918;50.796;6.772;2022-07-29T15:36:04;3.40;;;2.70;;
1837;SDS011;918;50.796;6.772;2022-07-29T15:38:30;3.00;;;2.40;;
1837;SDS011;918;50.796;6.772;2022-07-29T15:40:55;3.10;;;2.57;;
1837;SDS011;918;50.796;6.772;2022-07-29T15:43:20;2.70;;;2.50;;
1837;SDS011;918;50.796;6.772;2022-07-29T15:45:46;2.90;;;2.70;;
1837;SDS011;918;50.796;6.772;2022-07-29T15:48:30;2.83;;;2.63;;
1837;SDS011;918;50.796;6.772;2022-07-29T15:50:56;5.10;;;2.50;;
1837;SDS011;918;50.796;6.772;2022-07-29T15:53:21;6.93;;;2.93;;
1837;SDS011;918;50.796;6.772;2022-07-29T15:55:47;2.60;;;2.40;;
1837;SDS011;918;50.796;6.772;2022-07-29T15:58:12;4.03;;;2.50;;
1837;SDS011;918;50.796;6.772;2022-07-29T16:00:37;5.57;;;2.43;;
1837;SDS011;918;50.796;6.772;2022-07-29T16:03:02;2.20;;;2.10;;
1837;SDS011;918;50.796;6.772;2022-07-29T16:05:28;3.00;;;2.27;;
1837;SDS011;918;50.796;6.772;2022-07-29T16:07:53;2.80;;;2.00;;